Time;durP1;ratioP1;P1;durP2;ratioP2;P2;SDS_P1;SDS_P2;PMS_P1;PMS_P2;Temp;Humidity;BMP_temperature;BMP_pressure;BME280_temperature;BME280_humidity;BME280_pressure;Samples;Min_cycle;Max_cycle;Signal;HPM_P1;HPM_P2
2023/09/28 00:00:42;;;;;;;13.30;8.30;;;;;;;10.41;100.00;102044.21;105378;1260;72867;-51
2023/09/28 00:03:10;;;;;;;17.40;9.10;;;;;;;10.39;100.00;102042.46;105368;1262;60448;-51
2023/09/28 00:05:38;;;;;;;20.70;9.30;;;;;;;10.36;100.00;102042.77;105543;1262;60439;-51
2023/09/28 00:08:05;;;;;;;18.50;9.20;;;;;;;10.32;100.00;102040.33;105446;1258;73904;-50
2023/09/28 00:10:32;;;;;;;22.90;9.20;;;;;;;10.29;100.00;102039.10;105521;1262;64429;-51
2023/09/28 00:12:59;;;;;;;19.80;9.20;;;;;;;10.27;100.00;102036.83;105326;1257;72616;-51
2023/09/28 00:15:26;;;;;;;21.40;9.10;;;;;;;10.27;100.00;102034.41;105531;1257;61863;-50
2023/09/28 00:17:54;;;;;;;19.70;9.50;;;;;;;10.29;100.00;102025.12;105110;1260;350732;-49
2023/09/28 00:22:22;;;;;;;17.50;9.90;;;;;;;10.31;100.00;102045.14;102942;1290;600185;-49
2023/09/28 00:24:49;;;;;;;23.10;9.50;;;;;;;10.29;100.00;102017.86;105072;1267;60424;-49
2023/09/28 00:27:17;;;;;;;16.70;9.60;;;;;;;10.30;100.00;102013.22;104778;1269;60285;-49
2023/09/28 00:29:46;;;;;;;18.00;9.10;;;;;;;10.31;100.00;102010.11;104708;1270;70645;-49
2023/09/28 00:32:14;;;;;;;20.00;9.20;;;;;;;10.29;100.00;102005.61;104942;1264;62231;-49
2023/09/28 00:34:42;;;;;;;22.50;9.50;;;;;;;10.26;100.00;102000.60;104968;1269;72606;-50
2023/09/28 00:37:11;;;;;;;14.90;9.50;;;;;;;10.23;100.00;102001.60;105021;1267;234466;-49
2023/09/28 00:39:38;;;;;;;18.40;9.70;;;;;;;10.19;100.00;102000.18;105087;1261;59218;-50
2023/09/28 00:42:06;;;;;;;22.40;10.20;;;;;;;10.16;100.00;101996.02;105099;1261;70693;-48
2023/09/28 00:44:34;;;;;;;17.00;9.30;;;;;;;10.13;100.00;101997.55;105274;1261;63647;-50
2023/09/28 00:47:02;;;;;;;18.20;9.10;;;;;;;10.10;100.00;101994.77;105074;1269;71441;-49
2023/09/28 00:49:30;;;;;;;15.10;8.80;;;;;;;10.09;100.00;101998.90;105049;1266;60390;-49
2023/09/28 00:51:59;;;;;;;14.10;9.20;;;;;;;10.09;100.00;101998.21;105165;1269;59646;-50
2023/09/28 00:54:27;;;;;;;21.20;9.60;;;;;;;10.09;100.00;101991.48;105199;1262;73782;-52
2023/09/28 00:56:55;;;;;;;22.60;8.60;;;;;;;10.10;100.00;101991.48;105251;1262;63154;-50
2023/09/28 00:59:23;;;;;;;19.60;9.50;;;;;;;10.08;100.00;101986.47;105096;1264;71393;-51
2023/09/28 01:01:51;;;;;;;39.30;9.00;;;;;;;10.08;100.00;101985.27;105210;1263;60458;-51
2023/09/28 01:04:19;;;;;;;18.00;9.60;;;;;;;10.08;100.00;101978.53;105036;1269;59548;-49
2023/09/28 01:06:48;;;;;;;20.20;9.90;;;;;;;10.09;100.00;101979.05;105055;1264;71983;-50
2023/09/28 01:09:15;;;;;;;19.00;9.50;;;;;;;10.11;100.00;101967.70;105127;1264;63137;-50
2023/09/28 01:11:45;;;;;;;16.70;9.60;;;;;;;10.11;100.00;101965.98;105138;1269;71930;-50
2023/09/28 01:14:12;;;;;;;28.90;8.80;;;;;;;10.09;100.00;101966.64;105283;1266;60643;-49
2023/09/28 01:16:40;;;;;;;17.70;9.80;;;;;;;10.06;100.00;101963.00;105004;1266;59656;-50
2023/09/28 01:19:09;;;;;;;28.10;10.40;;;;;;;10.04;100.00;101964.37;104923;1264;71776;-50
2023/09/28 01:21:36;;;;;;;18.20;9.80;;;;;;;10.01;100.00;101967.27;105105;1263;64378;-50
2023/09/28 01:24:06;;;;;;;23.30;9.90;;;;;;;9.98;100.00;101968.11;105008;1268;71570;-49
2023/09/28 01:26:34;;;;;;;24.60;9.20;;;;;;;9.96;100.00;101968.79;105140;1266;60404;-49
2023/09/28 01:29:03;;;;;;;19.70;11.10;;;;;;;9.92;100.00;101967.20;105200;1267;59621;-49
2023/09/28 01:31:32;;;;;;;19.70;10.30;;;;;;;9.90;100.00;101975.11;105116;1263;72204;-51
2023/09/28 01:34:00;;;;;;;20.30;10.30;;;;;;;9.87;100.00;101976.12;104993;1263;63297;-49
2023/09/28 01:36:27;;;;;;;14.60;8.60;;;;;;;9.84;100.00;101975.06;105052;1269;71372;-48
2023/09/28 01:38:58;;;;;;;20.60;9.30;;;;;;;9.79;100.00;101976.92;105038;1269;60406;-50
2023/09/28 01:41:26;;;;;;;23.40;10.30;;;;;;;9.75;100.00;101983.79;104889;1268;61097;-49
2023/09/28 01:43:54;;;;;;;22.00;10.00;;;;;;;9.75;100.00;101987.92;105077;1269;71139;-50
2023/09/28 01:46:22;;;;;;;21.90;11.00;;;;;;;9.76;100.00;101987.77;105067;1264;63168;-50
2023/09/28 01:48:50;;;;;;;16.80;10.20;;;;;;;9.76;100.00;101983.63;105078;1269;71380;-48
2023/09/28 01:51:18;;;;;;;15.90;9.70;;;;;;;9.76;100.00;101982.23;105051;1268;60433;-50
2023/09/28 01:53:46;;;;;;;19.90;9.30;;;;;;;9.75;100.00;101981.70;105125;1265;59672;-49
2023/09/28 01:56:15;;;;;;;17.90;9.60;;;;;;;9.72;100.00;101985.30;105264;1265;73037;-50
2023/09/28 01:58:43;;;;;;;16.70;11.10;;;;;;;9.69;100.00;101983.55;105385;1257;63141;-49
2023/09/28 02:01:31;;;;;;;16.80;10.30;;;;;;;9.68;100.00;101985.25;105520;1257;73194;-50
2023/09/28 02:03:59;;;;;;;17.20;9.90;;;;;;;9.65;100.00;101985.75;105611;1257;60430;-49
2023/09/28 02:06:27;;;;;;;18.00;10.60;;;;;;;9.64;100.00;101987.80;105472;1256;60821;-49
2023/09/28 02:08:55;;;;;;;17.50;10.30;;;;;;;9.62;100.00;101986.93;105426;1260;71211;-49
2023/09/28 02:11:23;;;;;;;18.40;12.00;;;;;;;9.61;100.00;101988.98;105563;1260;63209;-50
2023/09/28 02:13:51;;;;;;;12.40;9.60;;;;;;;9.58;100.00;101992.22;105465;1257;71368;-50
2023/09/28 02:16:19;;;;;;;19.00;10.50;;;;;;;9.56;100.00;101988.23;105506;1256;60371;-50
2023/09/28 02:18:47;;;;;;;22.90;10.10;;;;;;;9.54;100.00;101987.19;105483;1257;59713;-51
2023/09/28 02:21:14;;;;;;;24.40;11.50;;;;;;;9.53;100.00;101987.52;105499;1256;71756;-50
2023/09/28 02:23:42;;;;;;;21.60;10.30;;;;;;;9.53;100.00;101983.73;105497;1257;63377;-51
2023/09/28 02:26:10;;;;;;;20.30;10.60;;;;;;;9.52;100.00;101984.93;105578;1255;71410;-51
2023/09/28 02:28:37;;;;;;;21.10;10.40;;;;;;;9.48;100.00;101983.17;105495;1261;60367;-52
2023/09/28 02:31:08;;;;;;;19.80;9.40;;;;;;;9.42;100.00;101984.13;105640;1257;59966;-49
2023/09/28 02:33:36;;;;;;;24.60;11.40;;;;;;;9.38;100.00;101986.86;105460;1258;71748;-50
2023/09/28 02:36:04;;;;;;;22.40;11.60;;;;;;;9.36;100.00;101988.71;105499;1256;63236;-49
2023/09/28 02:38:32;;;;;;;20.80;10.70;;;;;;;9.35;100.00;101991.46;105514;1260;72621;-49
2023/09/28 02:41:00;;;;;;;25.60;10.60;;;;;;;9.33;100.00;101986.44;105522;1258;60387;-49
2023/09/28 02:43:28;;;;;;;21.20;9.80;;;;;;;9.29;100.00;101986.92;105456;1263;59545;-51
2023/09/28 02:45:56;;;;;;;22.80;10.40;;;;;;;9.25;100.00;101987.56;105474;1257;72071;-50
2023/09/28 02:48:23;;;;;;;21.20;10.60;;;;;;;9.21;100.00;101990.45;105492;1260;64390;-50
2023/09/28 02:50:51;;;;;;;22.50;10.60;;;;;;;9.19;100.00;101990.95;105668;1256;71470;-49
2023/09/28 02:53:19;;;;;;;25.80;12.30;;;;;;;9.22;100.00;101987.17;105702;1258;60490;-51
2023/09/28 02:55:47;;;;;;;26.30;10.40;;;;;;;9.25;100.00;101981.02;105587;1260;59625;-50
2023/09/28 02:58:15;;;;;;;22.90;10.90;;;;;;;9.24;100.00;101977.57;105590;1260;72789;-50
2023/09/28 03:00:43;;;;;;;19.30;11.20;;;;;;;9.22;100.00;101975.98;105646;1258;63165;-50
2023/09/28 03:03:11;;;;;;;25.50;10.20;;;;;;;9.17;100.00;101972.30;105578;1257;71409;-49
2023/09/28 03:05:39;;;;;;;17.90;9.60;;;;;;;9.11;100.00;101972.24;105555;1257;60478;-49
2023/09/28 03:08:09;;;;;;;23.80;9.70;;;;;;;9.07;100.00;101974.43;105519;1256;60068;-51
2023/09/28 03:10:41;;;;;;;23.10;10.40;;;;;;;9.05;100.00;101979.40;105528;1257;71771;-50
2023/09/28 03:13:10;;;;;;;28.90;10.10;;;;;;;9.04;100.00;101980.26;105537;1260;63099;-51
2023/09/28 03:15:43;;;;;;;25.90;10.40;;;;;;;9.03;100.00;101976.80;105528;1258;72640;-50
2023/09/28 03:18:12;;;;;;;22.50;10.50;;;;;;;9.02;100.00;101978.34;105516;1257;60722;-51
2023/09/28 03:20:44;;;;;;;16.80;9.80;;;;;;;9.02;100.00;101978.17;105663;1260;59624;-51
2023/09/28 03:23:13;;;;;;;16.30;9.80;;;;;;;9.03;100.00;101978.19;105572;1258;73019;-50
2023/09/28 03:25:42;;;;;;;21.20;11.70;;;;;;;9.04;100.00;101972.52;105572;1256;63220;-51
2023/09/28 03:28:11;;;;;;;17.20;10.40;;;;;;;9.03;100.00;101972.33;105626;1257;71365;-49
2023/09/28 03:30:39;;;;;;;20.10;9.70;;;;;;;9.01;100.00;101967.65;105501;1258;61704;-50
2023/09/28 03:33:08;;;;;;;24.50;9.10;;;;;;;8.97;100.00;101967.94;105535;1260;59612;-48
2023/09/28 03:35:36;;;;;;;16.80;10.20;;;;;;;8.89;100.00;101965.44;105539;1261;73001;-49
2023/09/28 03:38:03;;;;;;;20.70;11.70;;;;;;;8.84;100.00;101969.14;105509;1257;65403;-49
2023/09/28 03:40:34;;;;;;;26.30;10.30;;;;;;;8.78;100.00;101969.60;105490;1257;72615;-49
2023/09/28 03:43:02;;;;;;;17.20;10.60;;;;;;;8.73;100.00;101971.95;105553;1260;60393;-49
2023/09/28 03:45:30;;;;;;;21.00;10.70;;;;;;;8.71;100.00;101975.52;105640;1256;59960;-49
2023/09/28 03:47:58;;;;;;;21.40;10.50;;;;;;;8.71;100.00;101975.00;105538;1256;72997;-50
2023/09/28 03:50:26;;;;;;;31.40;14.00;;;;;;;8.71;100.00;101975.52;105522;1260;63613;-51
2023/09/28 03:52:55;;;;;;;31.30;12.00;;;;;;;8.69;100.00;101979.27;105479;1257;72864;-49
2023/09/28 03:55:24;;;;;;;22.80;11.80;;;;;;;8.69;100.00;101975.15;105612;1260;60377;-49
2023/09/28 03:57:52;;;;;;;23.30;11.20;;;;;;;8.69;100.00;101969.47;105611;1260;59557;-49
2023/09/28 04:00:20;;;;;;;19.80;11.60;;;;;;;8.70;100.00;101964.83;105705;1258;71827;-50
2023/09/28 04:02:50;;;;;;;17.50;10.80;;;;;;;8.72;100.00;101962.64;105440;1257;66287;-49
2023/09/28 05:07:11;;;;;;;49.00;21.80;;;;;;;11.23;100.00;101985.95;103212;1288;600842;-52
2023/09/28 05:09:39;;;;;;;54.90;22.20;;;;;;;11.35;100.00;101977.17;104924;1271;60061;-50
2023/09/28 05:12:08;;;;;;;54.40;20.10;;;;;;;11.50;100.00;101985.84;104605;1266;59992;-51
2023/09/28 05:14:36;;;;;;;50.70;19.50;;;;;;;11.66;100.00;101990.70;104732;1267;72694;-50
2023/09/28 05:17:04;;;;;;;48.80;15.80;;;;;;;11.81;100.00;101991.77;104852;1272;64829;-49
2023/09/28 05:19:32;;;;;;;39.10;14.90;;;;;;;11.95;100.00;101996.09;104704;1266;72191;-50
2023/09/28 05:22:00;;;;;;;43.50;15.10;;;;;;;12.11;100.00;102012.73;104911;1264;355609;-50
2023/09/28 05:24:27;;;;;;;35.10;12.80;;;;;;;12.26;100.00;102028.84;104929;1268;59280;-48
2023/09/28 05:26:56;;;;;;;38.60;12.90;;;;;;;12.42;100.00;102041.80;104856;1263;72271;-49
2023/09/28 05:29:24;;;;;;;37.90;13.50;;;;;;;12.57;100.00;102064.48;104960;1263;64137;-49
2023/09/28 05:31:52;;;;;;;33.00;13.30;;;;;;;12.70;100.00;102078.48;104883;1268;71402;-50
2023/09/28 05:34:19;;;;;;;35.20;12.60;;;;;;;12.82;100.00;102102.73;104859;1266;59564;-50
2023/09/28 05:36:47;;;;;;;32.40;11.60;;;;;;;12.95;100.00;102123.31;105127;1267;59608;-50
2023/09/28 05:39:16;;;;;;;21.70;11.60;;;;;;;13.09;100.00;102148.59;104865;1263;73050;-51
2023/09/28 05:41:44;;;;;;;28.70;12.00;;;;;;;13.27;100.00;102178.89;104883;1263;64706;-50
2023/09/28 05:44:13;;;;;;;26.40;12.20;;;;;;;13.43;100.00;102210.79;105024;1267;71446;-53
2023/09/28 05:46:41;;;;;;;24.20;12.40;;;;;;;13.54;100.00;102239.55;104822;1270;59951;-52
2023/09/28 05:49:09;;;;;;;28.70;11.80;;;;;;;13.67;100.00;102272.64;104882;1269;59742;-49
2023/09/28 05:51:37;;;;;;;30.10;12.70;;;;;;;13.84;100.00;102295.85;104899;1268;70488;-51
2023/09/28 05:54:04;;;;;;;25.00;11.80;;;;;;;14.01;100.00;102316.63;105115;1264;64545;-50
2023/09/28 05:56:32;;;;;;;23.80;12.10;;;;;;;14.16;100.00;102336.89;105076;1269;71950;-49
2023/09/28 05:59:00;;;;;;;25.20;12.10;;;;;;;14.35;100.00;102351.40;104914;1263;61643;-50
2023/09/28 06:01:29;;;;;;;28.60;10.90;;;;;;;14.54;100.00;102343.50;104947;1268;61936;-49
2023/09/28 06:03:57;;;;;;;34.60;12.10;;;;;;;14.69;100.00;102309.72;105041;1263;73489;-50
2023/09/28 06:06:25;;;;;;;27.10;10.80;;;;;;;14.91;100.00;102173.33;105177;1263;63124;-50
2023/09/28 06:08:53;;;;;;;21.60;11.30;;;;;;;15.08;100.00;102022.77;105139;1269;71422;-51
2023/09/28 06:11:22;;;;;;;25.10;10.80;;;;;;;15.24;100.00;101829.39;105167;1265;59837;-50
2023/09/28 06:13:50;;;;;;;25.50;11.20;;;;;;;15.37;100.00;101719.10;105227;1266;61325;-51
2023/09/28 06:16:38;;;;;;;25.10;10.90;;;;;;;15.48;100.00;101628.94;105127;1267;73119;-50
2023/09/28 06:19:06;;;;;;;29.00;10.70;;;;;;;15.61;100.00;101571.30;104998;1264;65562;-51
2023/09/28 06:21:34;;;;;;;29.40;11.30;;;;;;;15.72;100.00;101527.02;104975;1267;71388;-50
2023/09/28 06:24:02;;;;;;;22.10;10.90;;;;;;;15.86;100.00;101485.64;105263;1260;60044;-50
2023/09/28 06:26:30;;;;;;;30.00;11.20;;;;;;;15.97;100.00;101429.34;105330;1261;60055;-50
2023/09/28 06:29:00;;;;;;;21.20;10.70;;;;;;;16.08;100.00;101375.61;105208;1266;73043;-51
2023/09/28 06:31:28;;;;;;;28.90;11.00;;;;;;;16.18;100.00;101345.91;105242;1266;63085;-50
2023/09/28 06:33:56;;;;;;;36.00;11.20;;;;;;;16.27;100.00;101318.16;105231;1263;72604;-50
2023/09/28 06:36:27;;;;;;;24.00;11.70;;;;;;;16.38;100.00;101305.14;105144;1267;59804;-50
2023/09/28 06:39:08;;;;;;;20.90;11.50;;;;;;;16.50;100.00;101316.44;105138;1265;59637;-51
2023/09/28 06:41:38;;;;;;;30.10;10.10;;;;;;;16.60;100.00;101340.37;105189;1261;71871;-51
2023/09/28 06:44:08;;;;;;;24.40;10.60;;;;;;;16.66;100.00;101348.38;105238;1266;66675;-51
2023/09/28 06:46:37;;;;;;;30.60;11.30;;;;;;;16.74;100.00;101359.13;105170;1266;71439;-51
2023/09/28 06:49:08;;;;;;;19.10;10.40;;;;;;;16.81;100.00;101383.66;105194;1265;59897;-51
2023/09/28 06:51:37;;;;;;;17.50;10.50;;;;;;;16.90;100.00;101420.35;105191;1266;59541;-49
2023/09/28 06:54:05;;;;;;;34.40;11.90;;;;;;;17.00;100.00;101430.39;105217;1260;71816;-51
2023/09/28 06:56:36;;;;;;;24.40;10.80;;;;;;;17.13;100.00;101443.26;105202;1266;63178;-49
2023/09/28 06:59:04;;;;;;;27.60;10.90;;;;;;;17.24;100.00;101453.20;105277;1267;72620;-50
2023/09/28 07:01:31;;;;;;;17.60;10.00;;;;;;;17.36;100.00;101451.27;105168;1266;60402;-50
2023/09/28 07:04:01;;;;;;;25.60;9.80;;;;;;;17.52;100.00;101455.84;105211;1263;59580;-50
2023/09/28 07:06:29;;;;;;;17.50;10.20;;;;;;;17.67;100.00;101491.48;105127;1265;73019;-50
2023/09/28 07:08:57;;;;;;;15.70;10.90;;;;;;;17.80;100.00;101540.66;105167;1264;64370;-49
2023/09/28 07:11:26;;;;;;;19.20;10.00;;;;;;;17.93;100.00;101565.02;105170;1261;72753;-50
2023/09/28 07:13:53;;;;;;;19.90;9.80;;;;;;;18.08;100.00;101580.33;105132;1265;59645;-50
2023/09/28 07:16:21;;;;;;;29.30;10.00;;;;;;;18.23;100.00;101610.75;105164;1266;59637;-51
2023/09/28 07:18:49;;;;;;;21.70;9.50;;;;;;;18.38;100.00;101633.86;105199;1261;71784;-50
2023/09/28 07:21:17;;;;;;;22.50;10.20;;;;;;;18.54;100.00;101652.38;105128;1261;64854;-50
2023/09/28 07:23:45;;;;;;;19.80;10.00;;;;;;;18.72;100.00;101675.02;105285;1264;71354;-50
2023/09/28 07:26:16;;;;;;;24.20;10.40;;;;;;;18.89;100.00;101688.11;105303;1264;59762;-49
2023/09/28 07:28:45;;;;;;;23.90;10.20;;;;;;;19.07;98.67;101695.05;105395;1266;60423;-50
2023/09/28 07:31:16;;;;;;;23.60;9.00;;;;;;;19.25;92.81;101701.44;105260;1259;71853;-51
2023/09/28 07:33:44;;;;;;;24.40;10.20;;;;;;;19.43;92.17;101708.48;105238;1266;64396;-50
2023/09/28 07:36:12;;;;;;;24.30;8.90;;;;;;;19.59;85.92;101697.77;105183;1261;71483;-50
2023/09/28 07:38:40;;;;;;;22.40;9.50;;;;;;;19.74;79.89;101683.37;105524;1263;60580;-50
2023/09/28 07:41:08;;;;;;;16.30;8.60;;;;;;;19.95;77.51;101687.52;105534;1262;60104;-50
2023/09/28 07:43:36;;;;;;;23.20;10.30;;;;;;;20.15;75.14;101685.72;105529;1260;73103;-50
2023/09/28 07:46:04;;;;;;;20.40;9.30;;;;;;;20.33;71.59;101651.54;105541;1256;63807;-50
2023/09/28 07:48:32;;;;;;;27.60;10.20;;;;;;;20.50;69.68;101638.07;105491;1263;71354;-50
2023/09/28 07:50:59;;;;;;;18.50;9.50;;;;;;;20.70;70.53;101687.89;105465;1263;59765;-49
2023/09/28 07:53:28;;;;;;;24.90;9.50;;;;;;;20.91;68.95;101656.68;105491;1258;60481;-50
2023/09/28 07:55:56;;;;;;;21.70;8.90;;;;;;;21.14;66.67;101591.50;105542;1263;72192;-50
2023/09/28 07:58:24;;;;;;;19.00;8.60;;;;;;;21.35;65.44;101585.46;105453;1263;63125;-51
2023/09/28 08:00:54;;;;;;;16.10;8.40;;;;;;;21.57;65.27;101600.61;105538;1261;73424;-51
2023/09/28 08:03:22;;;;;;;19.30;8.50;;;;;;;21.80;64.92;101596.05;105556;1263;60266;-51
2023/09/28 08:05:53;;;;;;;14.10;7.70;;;;;;;22.00;63.08;101532.03;105503;1260;60076;-51
2023/09/28 08:08:23;;;;;;;26.50;11.50;;;;;;;22.20;61.05;101424.52;105536;1263;74100;-49
2023/09/28 08:10:51;;;;;;;23.00;12.10;;;;;;;22.39;60.96;101454.60;105533;1263;62967;-53
2023/09/28 08:13:19;;;;;;;18.60;8.10;;;;;;;22.63;59.86;101413.29;105464;1263;72044;-52
2023/09/28 08:15:48;;;;;;;17.60;9.20;;;;;;;22.84;59.26;101388.39;105529;1263;59668;-50
2023/09/28 08:18:16;;;;;;;16.00;7.40;;;;;;;23.08;57.37;101235.34;105548;1263;59631;-52
2023/09/28 08:20:46;;;;;;;20.70;6.60;;;;;;;23.24;54.43;100984.63;105591;1254;72457;-52
2023/09/28 08:23:32;;;;;;;13.60;6.30;;;;;;;23.37;53.65;100966.92;105679;1260;63089;-52
2023/09/28 08:26:00;;;;;;;14.70;6.40;;;;;;;23.49;52.48;100829.88;105655;1260;71178;-51
2023/09/28 08:28:28;;;;;;;21.10;6.00;;;;;;;23.60;51.51;100785.85;105597;1257;61785;-52
2023/09/28 08:30:56;;;;;;;20.40;7.00;;;;;;;23.73;51.84;100835.29;105510;1260;59732;-50
2023/09/28 08:33:25;;;;;;;19.10;5.80;;;;;;;23.94;50.97;100735.23;105637;1260;72414;-50
2023/09/28 08:35:53;;;;;;;25.00;8.20;;;;;;;24.13;51.38;100790.70;105663;1263;63197;-51
2023/09/28 08:38:21;;;;;;;11.60;7.40;;;;;;;24.34;50.38;100698.59;105531;1260;72811;-50
2023/09/28 08:40:49;;;;;;;17.80;8.30;;;;;;;24.54;51.15;100763.59;105667;1260;60014;-49
2023/09/28 08:43:19;;;;;;;21.80;6.20;;;;;;;24.78;49.45;100609.42;105522;1263;59539;-50
2023/09/28 08:45:46;;;;;;;12.80;5.50;;;;;;;24.97;47.95;100412.86;105561;1262;71462;-50
2023/09/28 08:48:15;;;;;;;10.90;5.20;;;;;;;25.11;47.55;100364.73;105479;1260;65490;-50
2023/09/28 08:50:45;;;;;;;19.40;7.30;;;;;;;25.23;47.36;100316.14;105374;1260;72882;-51
2023/09/28 08:53:13;;;;;;;14.90;6.20;;;;;;;25.39;48.91;100558.85;105322;1264;59669;-51
2023/09/28 08:55:42;;;;;;;14.90;5.80;;;;;;;25.67;48.83;100568.88;105485;1266;60134;-50
2023/09/28 08:58:10;;;;;;;11.90;4.80;;;;;;;25.99;47.50;100395.88;105498;1263;72073;-51
2023/09/28 09:00:38;;;;;;;20.10;4.90;;;;;;;26.17;44.53;99955.14;105516;1261;64704;-51
2023/09/28 09:03:06;;;;;;;7.90;4.70;;;;;;;26.15;42.92;99707.84;105471;1261;73788;-52
2023/09/28 09:05:36;;;;;;;10.50;5.00;;;;;;;26.08;44.35;99855.66;105551;1258;60524;-51
2023/09/28 09:08:04;;;;;;;12.10;4.30;;;;;;;26.19;43.99;99890.77;105567;1263;60851;-50
2023/09/28 09:10:32;;;;;;;12.60;4.60;;;;;;;26.31;43.41;99832.55;105582;1255;73377;-50
2023/09/28 09:13:00;;;;;;;11.90;3.70;;;;;;;26.43;43.71;99837.93;105689;1260;65242;-50
2023/09/28 09:15:28;;;;;;;9.00;4.60;;;;;;;26.67;45.09;100059.84;105740;1260;71630;-51
2023/09/28 09:18:02;;;;;;;7.80;4.00;;;;;;;27.00;44.35;100004.42;105452;1260;60422;-51
2023/09/28 09:20:30;;;;;;;11.00;3.30;;;;;;;27.27;41.89;99654.59;105638;1260;60438;-52
2023/09/28 09:23:14;;;;;;;8.40;3.60;;;;;;;27.35;41.35;99510.83;105572;1262;72605;-51
2023/09/28 09:25:53;;;;;;;8.30;3.70;;;;;;;27.40;41.09;99448.19;105570;1262;64786;-52
2023/09/28 09:28:33;;;;;;;7.50;3.90;;;;;;;27.43;40.29;99355.23;105512;1260;72440;-51
2023/09/28 09:31:01;;;;;;;11.90;3.70;;;;;;;27.39;40.83;99435.40;105596;1259;60543;-52
2023/09/28 09:33:29;;;;;;;6.50;3.10;;;;;;;27.43;40.14;99378.29;105537;1254;61030;-50
2023/09/28 09:35:58;;;;;;;11.90;3.20;;;;;;;27.44;39.22;99197.58;105506;1254;73369;-52
2023/09/28 09:38:29;;;;;;;4.90;3.20;;;;;;;27.45;40.23;99354.73;105561;1261;66540;-51
2023/09/28 09:40:59;;;;;;;14.40;3.00;;;;;;;27.61;40.48;99424.29;105573;1260;71110;-51
2023/09/28 09:43:34;;;;;;;7.70;3.00;;;;;;;27.81;40.12;99419.05;105502;1260;60532;-51
2023/09/28 09:46:06;;;;;;;9.30;2.80;;;;;;;27.91;38.19;99095.86;105562;1255;61769;-52
2023/09/28 09:48:39;;;;;;;4.70;2.80;;;;;;;27.82;38.04;99055.90;105587;1260;72861;-51
2023/09/28 09:51:15;;;;;;;6.80;2.40;;;;;;;27.74;36.95;98870.66;105619;1261;65196;-50
2023/09/28 09:53:44;;;;;;;16.60;2.60;;;;;;;27.70;38.41;99012.55;105441;1260;72626;-51
2023/09/28 09:56:13;;;;;;;8.50;2.50;;;;;;;27.87;39.22;99194.06;105532;1260;60415;-51
2023/09/28 09:58:48;;;;;;;10.90;3.80;;;;;;;28.12;38.54;99147.70;105598;1261;61085;-52
2023/09/28 10:01:16;;;;;;;5.90;2.80;;;;;;;28.28;36.90;98878.70;105505;1260;74431;-52
2023/09/28 10:03:50;;;;;;;6.00;3.10;;;;;;;28.33;36.75;98803.27;105498;1258;62976;-52
2023/09/28 10:06:20;;;;;;;5.90;2.60;;;;;;;28.39;36.02;98686.27;105627;1261;72145;-51
2023/09/28 10:08:53;;;;;;;5.40;2.50;;;;;;;28.39;36.36;98684.96;105510;1264;60514;-52
2023/09/28 10:11:22;;;;;;;12.90;2.60;;;;;;;28.47;36.50;98748.77;105569;1261;60629;-52
2023/09/28 10:13:50;;;;;;;10.10;2.60;;;;;;;28.58;35.55;98643.52;105611;1261;74161;-51
2023/09/28 10:16:18;;;;;;;6.90;2.60;;;;;;;28.64;35.47;98546.65;105503;1262;65434;-51
2023/09/28 10:18:47;;;;;;;4.80;2.80;;;;;;;28.63;35.16;98486.95;105481;1257;72704;-52
2023/09/28 10:21:16;;;;;;;5.00;2.10;;;;;;;28.60;34.31;98369.98;105508;1260;60389;-52
2023/09/28 10:23:43;;;;;;;13.30;2.40;;;;;;;28.49;35.07;98434.06;105545;1257;61022;-53
2023/09/28 10:26:12;;;;;;;5.00;2.10;;;;;;;28.45;35.38;98500.63;105306;1263;74537;-51
2023/09/28 10:29:00;;;;;;;13.20;2.30;;;;;;;28.48;35.41;98544.19;105597;1260;64773;-52
2023/09/28 10:31:28;;;;;;;4.50;1.90;;;;;;;28.52;34.69;98457.57;105506;1261;73158;-52
2023/09/28 10:34:20;;;;;;;60.70;3.90;;;;;;;28.57;34.90;98457.91;105460;1262;61143;-53
2023/09/28 10:37:18;;;;;;;8.80;2.30;;;;;;;28.67;36.08;98607.80;105586;1260;60427;-52
2023/09/28 10:39:51;;;;;;;7.50;2.40;;;;;;;28.95;36.55;98741.98;106643;1260;75759;-52
2023/09/28 10:42:19;;;;;;;19.20;2.90;;;;;;;29.18;35.83;98661.13;106898;1260;64953;-55
2023/09/28 10:44:57;;;;;;;3.50;1.90;;;;;;;29.36;36.20;98706.75;106047;1261;73007;-54
2023/09/28 10:47:26;;;;;;;10.70;2.50;;;;;;;29.55;36.16;98721.23;105568;1261;60421;-51
2023/09/28 10:50:00;;;;;;;15.40;2.50;;;;;;;29.67;35.73;98669.64;106255;1257;62045;-53
2023/09/28 10:52:28;;;;;;;5.80;2.00;;;;;;;29.75;35.56;98613.67;107887;1255;72678;-52
2023/09/28 10:54:56;;;;;;;4.30;2.50;;;;;;;29.80;34.30;98431.33;106241;1257;64465;-52
2023/09/28 10:57:29;;;;;;;8.90;2.90;;;;;;;29.78;33.90;98362.01;107545;1257;72676;-52
2023/09/28 11:00:01;;;;;;;6.50;2.40;;;;;;;29.78;34.87;98448.91;107270;1257;60424;-52
2023/09/28 11:02:34;;;;;;;3.50;2.20;;;;;;;29.87;35.09;98539.81;107818;1257;60405;-52
2023/09/28 11:05:02;;;;;;;8.20;2.20;;;;;;;30.02;35.39;98592.98;108054;1254;73697;-53
2023/09/28 11:07:31;;;;;;;3.50;1.80;;;;;;;30.15;33.73;98333.28;107384;1257;64927;-52
2023/09/28 11:09:58;;;;;;;3.40;2.00;;;;;;;30.10;33.90;98325.21;106507;1254;73019;-52
2023/09/28 11:12:28;;;;;;;3.70;1.70;;;;;;;30.04;35.01;98438.18;107453;1254;61611;-53
2023/09/28 11:14:58;;;;;;;4.80;1.80;;;;;;;30.07;33.91;98390.40;106614;1254;60463;-54
2023/09/28 11:17:26;;;;;;;6.80;2.10;;;;;;;30.02;34.00;98336.23;106279;1260;73859;-52
2023/09/28 11:19:56;;;;;;;21.70;3.00;;;;;;;29.99;34.19;98360.38;106315;1255;63222;-53
2023/09/28 11:22:24;;;;;;;15.40;2.60;;;;;;;30.06;34.85;98457.23;106789;1257;75222;-53
2023/09/28 11:24:51;;;;;;;11.40;2.20;;;;;;;30.19;35.08;98494.08;107386;1260;60395;-53
2023/09/28 11:27:19;;;;;;;25.70;2.90;;;;;;;30.28;34.84;98496.84;105939;1260;60533;-51
2023/09/28 11:29:55;;;;;;;11.70;2.60;;;;;;;30.39;34.81;98509.80;106267;1254;72547;-51
2023/09/28 11:32:22;;;;;;;23.30;2.80;;;;;;;30.44;34.25;98441.79;105616;1255;64523;-52
2023/09/28 11:34:51;;;;;;;22.90;2.90;;;;;;;30.41;33.95;98377.55;105692;1257;71158;-50
2023/09/28 11:37:20;;;;;;;15.40;2.20;;;;;;;30.35;34.46;98424.40;105598;1260;60511;-53
2023/09/28 11:39:47;;;;;;;2.70;1.80;;;;;;;30.34;35.00;98526.67;106158;1255;60341;-51
2023/09/28 11:42:16;;;;;;;7.20;2.30;;;;;;;30.39;34.57;98499.34;105857;1260;74453;-51
2023/09/28 11:44:44;;;;;;;3.10;2.10;;;;;;;30.43;33.54;98346.55;105522;1258;63133;-52
2023/09/28 11:47:11;;;;;;;10.90;3.90;;;;;;;30.36;33.00;98249.80;105606;1263;71446;-52
2023/09/28 11:49:41;;;;;;;3.40;3.10;;;;;;;30.29;32.59;98180.70;105683;1257;60888;-52
2023/09/28 11:52:11;;;;;;;8.30;2.80;;;;;;;30.08;32.74;98144.53;105665;1260;60332;-51
2023/09/28 11:54:39;;;;;;;11.20;2.70;;;;;;;29.92;34.10;98316.85;105599;1254;74472;-53
2023/09/28 11:57:08;;;;;;;6.20;2.80;;;;;;;30.01;35.15;98527.55;105595;1261;65051;-53
2023/09/28 11:59:37;;;;;;;8.20;2.30;;;;;;;30.08;34.13;98430.27;105662;1261;72621;-53
2023/09/28 12:02:05;;;;;;;8.20;2.40;;;;;;;30.02;33.70;98340.98;105624;1255;60846;-53
2023/09/28 12:04:35;;;;;;;6.50;3.00;;;;;;;29.98;33.61;98349.64;105586;1257;60562;-52
2023/09/28 12:07:03;;;;;;;14.40;3.70;;;;;;;29.98;33.81;98349.52;105615;1254;72545;-53
2023/09/28 12:09:31;;;;;;;4.40;2.50;;;;;;;29.98;33.52;98334.50;105586;1258;65506;-52
2023/09/28 12:11:59;;;;;;;3.70;2.20;;;;;;;29.89;33.32;98288.32;105657;1262;73758;-53
2023/09/28 12:14:26;;;;;;;7.90;4.30;;;;;;;29.87;33.93;98371.70;105522;1261;60454;-53
2023/09/28 12:16:56;;;;;;;4.60;4.00;;;;;;;29.92;33.86;98377.95;105552;1260;60418;-52
2023/09/28 12:19:25;;;;;;;5.80;3.50;;;;;;;29.93;33.37;98326.38;105597;1260;74820;-52